sensor_id;sensor_type;location;lat;lon;timestamp;temperature;humidity
13591;DHT22;6866;50.778;7.206;2023-02-28T00:00:27;1.90;99.90
13591;DHT22;6866;50.778;7.206;2023-02-28T00:02:52;2.10;99.90
13591;DHT22;6866;50.778;7.206;2023-02-28T00:05:21;1.90;99.90
13591;DHT22;6866;50.778;7.206;2023-02-28T00:07:48;2.00;99.90
13591;DHT22;6866;50.778;7.206;2023-02-28T00:12:49;1.70;99.90
13591;DHT22;6866;50.778;7.206;2023-02-28T00:15:15;1.90;99.90
13591;DHT22;6866;50.778;7.206;2023-02-28T00:17:40;2.00;99.90
13591;DHT22;6866;50.778;7.206;2023-02-28T00:20:08;2.00;99.90
13591;DHT22;6866;50.778;7.206;2023-02-28T00:22:39;1.80;99.90
13591;DHT22;6866;50.778;7.206;2023-02-28T00:25:06;1.80;99.90
13591;DHT22;6866;50.778;7.206;2023-02-28T00:27:33;1.90;99.90
13591;DHT22;6866;50.778;7.206;2023-02-28T00:29:59;2.00;99.90
13591;DHT22;6866;50.778;7.206;2023-02-28T00:32:25;1.70;99.90
13591;DHT22;6866;50.778;7.206;2023-02-28T00:34:50;1.80;99.90
13591;DHT22;6866;50.778;7.206;2023-02-28T00:37:16;1.40;99.90
13591;DHT22;6866;50.778;7.206;2023-02-28T00:39:41;1.70;99.90
13591;DHT22;6866;50.778;7.206;2023-02-28T00:42:07;1.50;99.90
13591;DHT22;6866;50.778;7.206;2023-02-28T00:44:33;1.60;99.90
13591;DHT22;6866;50.778;7.206;2023-02-28T00:47:00;1.60;99.90
13591;DHT22;6866;50.778;7.206;2023-02-28T00:49:26;1.40;99.90
13591;DHT22;6866;50.778;7.206;2023-02-28T00:51:53;1.70;99.90
13591;DHT22;6866;50.778;7.206;2023-02-28T00:54:19;1.50;99.90
13591;DHT22;6866;50.778;7.206;2023-02-28T00:56:45;1.50;99.90
13591;DHT22;6866;50.778;7.206;2023-02-28T00:59:14;1.60;99.90
13591;DHT22;6866;50.778;7.206;2023-02-28T01:01:40;1.50;99.90
13591;DHT22;6866;50.778;7.206;2023-02-28T01:04:06;1.60;99.90
13591;DHT22;6866;50.778;7.206;2023-02-28T01:06:31;1.40;99.90
13591;DHT22;6866;50.778;7.206;2023-02-28T01:08:58;1.50;99.90
13591;DHT22;6866;50.778;7.206;2023-02-28T01:11:23;1.60;99.90
13591;DHT22;6866;50.778;7.206;2023-02-28T01:13:49;1.50;99.90
13591;DHT22;6866;50.778;7.206;2023-02-28T01:16:15;1.30;99.90
13591;DHT22;6866;50.778;7.206;2023-02-28T01:18:40;1.40;99.90
13591;DHT22;6866;50.778;7.206;2023-02-28T01:21:10;1.40;99.90
13591;DHT22;6866;50.778;7.206;2023-02-28T01:23:37;1.20;99.90
13591;DHT22;6866;50.778;7.206;2023-02-28T01:26:08;1.20;99.90
13591;DHT22;6866;50.778;7.206;2023-02-28T01:28:34;1.30;99.90
13591;DHT22;6866;50.778;7.206;2023-02-28T01:31:00;1.40;99.90
13591;DHT22;6866;50.778;7.206;2023-02-28T01:33:26;1.30;99.90
13591;DHT22;6866;50.778;7.206;2023-02-28T01:36:20;1.50;99.90
13591;DHT22;6866;50.778;7.206;2023-02-28T01:38:46;1.60;99.90
13591;DHT22;6866;50.778;7.206;2023-02-28T01:41:21;1.30;99.90
13591;DHT22;6866;50.778;7.206;2023-02-28T01:46:13;1.60;99.90
13591;DHT22;6866;50.778;7.206;2023-02-28T01:48:47;1.50;99.90
13591;DHT22;6866;50.778;7.206;2023-02-28T01:51:17;1.40;99.90
13591;DHT22;6866;50.778;7.206;2023-02-28T01:53:47;1.50;99.90
13591;DHT22;6866;50.778;7.206;2023-02-28T01:56:16;1.70;99.90
13591;DHT22;6866;50.778;7.206;2023-02-28T01:58:47;1.60;99.90
13591;DHT22;6866;50.778;7.206;2023-02-28T02:03:54;1.70;99.90
13591;DHT22;6866;50.778;7.206;2023-02-28T02:06:36;1.60;99.90
13591;DHT22;6866;50.778;7.206;2023-02-28T02:09:02;1.50;99.90
13591;DHT22;6866;50.778;7.206;2023-02-28T02:11:28;1.60;99.90
13591;DHT22;6866;50.778;7.206;2023-02-28T02:16:52;1.50;99.90
13591;DHT22;6866;50.778;7.206;2023-02-28T02:36:22;1.10;99.90
13591;DHT22;6866;50.778;7.206;2023-02-28T02:41:28;1.10;99.90
13591;DHT22;6866;50.778;7.206;2023-02-28T02:46:43;1.20;99.90
13591;DHT22;6866;50.778;7.206;2023-02-28T02:49:15;1.10;99.90
13591;DHT22;6866;50.778;7.206;2023-02-28T02:51:42;1.10;99.90
13591;DHT22;6866;50.778;7.206;2023-02-28T02:54:19;0.90;99.90
13591;DHT22;6866;50.778;7.206;2023-02-28T02:56:47;0.90;99.90
13591;DHT22;6866;50.778;7.206;2023-02-28T02:59:16;1.00;99.90
13591;DHT22;6866;50.778;7.206;2023-02-28T03:01:51;0.90;99.90
13591;DHT22;6866;50.778;7.206;2023-02-28T03:04:20;0.80;99.90
13591;DHT22;6866;50.778;7.206;2023-02-28T03:06:46;0.90;99.90
13591;DHT22;6866;50.778;7.206;2023-02-28T03:09:12;0.60;99.90
13591;DHT22;6866;50.778;7.206;2023-02-28T03:11:39;0.70;99.90
13591;DHT22;6866;50.778;7.206;2023-02-28T03:14:18;0.80;99.90
13591;DHT22;6866;50.778;7.206;2023-02-28T03:20:02;0.80;99.90
13591;DHT22;6866;50.778;7.206;2023-02-28T03:22:46;0.70;99.90
13591;DHT22;6866;50.778;7.206;2023-02-28T03:28:31;0.90;99.90
13591;DHT22;6866;50.778;7.206;2023-02-28T03:31:03;0.60;99.90
13591;DHT22;6866;50.778;7.206;2023-02-28T03:33:42;0.50;99.90
13591;DHT22;6866;50.778;7.206;2023-02-28T03:36:20;0.60;99.90
13591;DHT22;6866;50.778;7.206;2023-02-28T03:41:19;0.90;99.90
13591;DHT22;6866;50.778;7.206;2023-02-28T03:43:54;0.70;99.90
13591;DHT22;6866;50.778;7.206;2023-02-28T03:46:23;0.80;99.90
13591;DHT22;6866;50.778;7.206;2023-02-28T03:49:13;0.80;99.90
13591;DHT22;6866;50.778;7.206;2023-02-28T03:51:42;0.80;99.90
13591;DHT22;6866;50.778;7.206;2023-02-28T03:54:15;0.50;99.90
13591;DHT22;6866;50.778;7.206;2023-02-28T03:57:10;0.40;99.90
13591;DHT22;6866;50.778;7.206;2023-02-28T03:59:39;0.60;99.90
13591;DHT22;6866;50.778;7.206;2023-02-28T04:02:07;0.50;99.90
13591;DHT22;6866;50.778;7.206;2023-02-28T04:04:33;0.50;99.90
13591;DHT22;6866;50.778;7.206;2023-02-28T04:07:06;0.80;99.90
13591;DHT22;6866;50.778;7.206;2023-02-28T04:09:31;0.70;99.90
13591;DHT22;6866;50.778;7.206;2023-02-28T04:11:57;0.40;99.90
13591;DHT22;6866;50.778;7.206;2023-02-28T04:14:23;0.40;99.90
13591;DHT22;6866;50.778;7.206;2023-02-28T04:16:49;0.50;99.90
13591;DHT22;6866;50.778;7.206;2023-02-28T04:19:16;0.50;99.90
13591;DHT22;6866;50.778;7.206;2023-02-28T04:21:47;0.40;99.90
13591;DHT22;6866;50.778;7.206;2023-02-28T04:24:24;0.30;99.90
13591;DHT22;6866;50.778;7.206;2023-02-28T04:26:52;0.30;99.90
13591;DHT22;6866;50.778;7.206;2023-02-28T04:29:30;0.40;99.90
13591;DHT22;6866;50.778;7.206;2023-02-28T04:31:58;0.40;99.90
13591;DHT22;6866;50.778;7.206;2023-02-28T04:34:28;0.40;99.90
13591;DHT22;6866;50.778;7.206;2023-02-28T04:36:55;0.40;99.90
13591;DHT22;6866;50.778;7.206;2023-02-28T04:39:22;0.20;99.90
13591;DHT22;6866;50.778;7.206;2023-02-28T04:41:48;0.20;99.90
13591;DHT22;6866;50.778;7.206;2023-02-28T04:44:14;0.10;99.90
13591;DHT22;6866;50.778;7.206;2023-02-28T04:46:40;0.40;99.90
13591;DHT22;6866;50.778;7.206;2023-02-28T04:49:05;0.20;99.90
13591;DHT22;6866;50.778;7.206;2023-02-28T04:51:31;0.30;99.90
13591;DHT22;6866;50.778;7.206;2023-02-28T04:53:57;0.20;99.90
13591;DHT22;6866;50.778;7.206;2023-02-28T04:56:22;0.30;99.90
13591;DHT22;6866;50.778;7.206;2023-02-28T04:58:48;0.40;99.90
13591;DHT22;6866;50.778;7.206;2023-02-28T05:01:30;0.20;99.90
13591;DHT22;6866;50.778;7.206;2023-02-28T05:03:57;0.50;99.90
13591;DHT22;6866;50.778;7.206;2023-02-28T05:06:25;0.40;99.90
13591;DHT22;6866;50.778;7.206;2023-02-28T05:08:52;0.40;99.90
13591;DHT22;6866;50.778;7.206;2023-02-28T05:11:21;0.70;99.90
13591;DHT22;6866;50.778;7.206;2023-02-28T05:13:48;0.40;99.90
13591;DHT22;6866;50.778;7.206;2023-02-28T05:16:14;0.40;99.90
13591;DHT22;6866;50.778;7.206;2023-02-28T05:18:40;0.20;99.90
13591;DHT22;6866;50.778;7.206;2023-02-28T05:21:05;0.30;99.90
13591;DHT22;6866;50.778;7.206;2023-02-28T05:23:31;0.30;99.90
13591;DHT22;6866;50.778;7.206;2023-02-28T05:25:57;0.50;99.90
13591;DHT22;6866;50.778;7.206;2023-02-28T05:28:23;0.60;99.90
13591;DHT22;6866;50.778;7.206;2023-02-28T05:30:49;0.50;99.90
13591;DHT22;6866;50.778;7.206;2023-02-28T05:33:14;0.40;99.90
13591;DHT22;6866;50.778;7.206;2023-02-28T05:35:41;0.60;99.90
13591;DHT22;6866;50.778;7.206;2023-02-28T05:38:08;0.50;99.90
13591;DHT22;6866;50.778;7.206;2023-02-28T05:40:33;0.40;99.90
13591;DHT22;6866;50.778;7.206;2023-02-28T05:42:59;0.50;99.90
13591;DHT22;6866;50.778;7.206;2023-02-28T05:45:24;0.40;99.90
13591;DHT22;6866;50.778;7.206;2023-02-28T05:47:53;0.20;99.90
13591;DHT22;6866;50.778;7.206;2023-02-28T05:50:19;0.40;99.90
13591;DHT22;6866;50.778;7.206;2023-02-28T05:52:49;0.50;99.90
13591;DHT22;6866;50.778;7.206;2023-02-28T05:55:15;0.40;99.90
13591;DHT22;6866;50.778;7.206;2023-02-28T05:57:40;0.50;99.90
13591;DHT22;6866;50.778;7.206;2023-02-28T06:00:06;0.50;99.90
13591;DHT22;6866;50.778;7.206;2023-02-28T06:02:32;0.10;99.90
13591;DHT22;6866;50.778;7.206;2023-02-28T06:04:58;0.10;99.90
13591;DHT22;6866;50.778;7.206;2023-02-28T06:07:23;0.10;99.90
13591;DHT22;6866;50.778;7.206;2023-02-28T06:09:49;0.40;99.90
13591;DHT22;6866;50.778;7.206;2023-02-28T06:12:14;0.20;99.90
13591;DHT22;6866;50.778;7.206;2023-02-28T06:14:40;0.30;99.90
13591;DHT22;6866;50.778;7.206;2023-02-28T06:17:06;0.20;99.90
13591;DHT22;6866;50.778;7.206;2023-02-28T06:19:31;0.30;99.90
13591;DHT22;6866;50.778;7.206;2023-02-28T06:21:57;0.60;99.90
13591;DHT22;6866;50.778;7.206;2023-02-28T06:24:24;0.40;99.90
13591;DHT22;6866;50.778;7.206;2023-02-28T06:26:53;0.60;99.90
13591;DHT22;6866;50.778;7.206;2023-02-28T06:29:19;0.60;99.70
13591;DHT22;6866;50.778;7.206;2023-02-28T06:31:45;0.60;99.40
13591;DHT22;6866;50.778;7.206;2023-02-28T06:34:11;0.70;99.10
13591;DHT22;6866;50.778;7.206;2023-02-28T06:36:38;0.90;98.40
13591;DHT22;6866;50.778;7.206;2023-02-28T06:39:05;2.10;97.00
13591;DHT22;6866;50.778;7.206;2023-02-28T06:41:30;3.10;91.40
13591;DHT22;6866;50.778;7.206;2023-02-28T06:43:56;4.30;84.50
13591;DHT22;6866;50.778;7.206;2023-02-28T06:46:23;4.90;84.80
13591;DHT22;6866;50.778;7.206;2023-02-28T06:48:48;3.10;87.70
13591;DHT22;6866;50.778;7.206;2023-02-28T06:51:17;2.30;93.00
13591;DHT22;6866;50.778;7.206;2023-02-28T06:53:43;1.80;94.70
13591;DHT22;6866;50.778;7.206;2023-02-28T06:56:11;1.50;95.90
13591;DHT22;6866;50.778;7.206;2023-02-28T06:58:38;1.50;96.40
13591;DHT22;6866;50.778;7.206;2023-02-28T07:01:05;1.30;96.50
13591;DHT22;6866;50.778;7.206;2023-02-28T07:03:31;1.20;96.40
13591;DHT22;6866;50.778;7.206;2023-02-28T07:08:24;8.30;92.60
13591;DHT22;6866;50.778;7.206;2023-02-28T07:18:21;9.00;61.30
13591;DHT22;6866;50.778;7.206;2023-02-28T07:20:47;9.60;54.80
13591;DHT22;6866;50.778;7.206;2023-02-28T07:23:12;10.30;46.40
13591;DHT22;6866;50.778;7.206;2023-02-28T07:25:38;12.20;52.50
13591;DHT22;6866;50.778;7.206;2023-02-28T07:28:04;10.60;46.70
13591;DHT22;6866;50.778;7.206;2023-02-28T07:30:30;11.00;46.60
13591;DHT22;6866;50.778;7.206;2023-02-28T07:32:55;11.20;60.00
13591;DHT22;6866;50.778;7.206;2023-02-28T07:35:22;10.00;64.10
13591;DHT22;6866;50.778;7.206;2023-02-28T07:37:47;11.50;59.80
13591;DHT22;6866;50.778;7.206;2023-02-28T07:40:13;12.20;38.80
13591;DHT22;6866;50.778;7.206;2023-02-28T07:42:42;11.60;37.80
13591;DHT22;6866;50.778;7.206;2023-02-28T07:45:09;11.00;37.70
13591;DHT22;6866;50.778;7.206;2023-02-28T07:47:37;11.50;39.20
13591;DHT22;6866;50.778;7.206;2023-02-28T07:50:03;13.70;36.20
13591;DHT22;6866;50.778;7.206;2023-02-28T07:52:29;14.10;46.40
13591;DHT22;6866;50.778;7.206;2023-02-28T07:54:54;12.00;50.10
13591;DHT22;6866;50.778;7.206;2023-02-28T07:57:20;11.70;50.70
13591;DHT22;6866;50.778;7.206;2023-02-28T07:59:45;11.60;50.80
13591;DHT22;6866;50.778;7.206;2023-02-28T08:02:13;12.20;51.40
13591;DHT22;6866;50.778;7.206;2023-02-28T08:04:39;11.30;50.60
13591;DHT22;6866;50.778;7.206;2023-02-28T08:07:05;12.20;50.30
13591;DHT22;6866;50.778;7.206;2023-02-28T08:09:31;11.80;50.30
13591;DHT22;6866;50.778;7.206;2023-02-28T08:11:56;13.50;50.40
13591;DHT22;6866;50.778;7.206;2023-02-28T08:14:22;12.50;38.60
13591;DHT22;6866;50.778;7.206;2023-02-28T08:16:48;9.90;37.60
13591;DHT22;6866;50.778;7.206;2023-02-28T08:19:13;10.10;50.50
13591;DHT22;6866;50.778;7.206;2023-02-28T08:21:39;9.20;55.40
13591;DHT22;6866;50.778;7.206;2023-02-28T08:24:05;9.00;47.80
13591;DHT22;6866;50.778;7.206;2023-02-28T08:26:31;11.60;39.00
13591;DHT22;6866;50.778;7.206;2023-02-28T08:28:57;11.60;36.20
13591;DHT22;6866;50.778;7.206;2023-02-28T08:31:22;11.80;36.30
13591;DHT22;6866;50.778;7.206;2023-02-28T08:33:48;11.40;35.30
13591;DHT22;6866;50.778;7.206;2023-02-28T08:36:16;11.70;35.40
13591;DHT22;6866;50.778;7.206;2023-02-28T08:38:42;10.70;35.60
13591;DHT22;6866;50.778;7.206;2023-02-28T08:41:11;11.60;35.00
13591;DHT22;6866;50.778;7.206;2023-02-28T08:43:37;13.30;33.60
13591;DHT22;6866;50.778;7.206;2023-02-28T08:46:04;13.90;39.50
13591;DHT22;6866;50.778;7.206;2023-02-28T08:48:31;13.50;63.70
13591;DHT22;6866;50.778;7.206;2023-02-28T08:51:09;14.20;69.10
13591;DHT22;6866;50.778;7.206;2023-02-28T08:53:39;12.70;70.40
13591;DHT22;6866;50.778;7.206;2023-02-28T08:56:13;13.40;71.70
13591;DHT22;6866;50.778;7.206;2023-02-28T08:58:40;13.80;66.60
13591;DHT22;6866;50.778;7.206;2023-02-28T09:01:26;13.90;67.20
13591;DHT22;6866;50.778;7.206;2023-02-28T09:03:55;12.80;66.90
13591;DHT22;6866;50.778;7.206;2023-02-28T09:06:23;13.00;66.70
13591;DHT22;6866;50.778;7.206;2023-02-28T09:08:49;12.50;64.60
13591;DHT22;6866;50.778;7.206;2023-02-28T09:11:15;11.90;63.90
13591;DHT22;6866;50.778;7.206;2023-02-28T09:13:41;12.80;65.90
13591;DHT22;6866;50.778;7.206;2023-02-28T09:16:10;13.20;67.70
13591;DHT22;6866;50.778;7.206;2023-02-28T09:18:36;13.30;66.40
13591;DHT22;6866;50.778;7.206;2023-02-28T09:21:08;12.10;63.60
13591;DHT22;6866;50.778;7.206;2023-02-28T09:23:34;12.00;65.90
13591;DHT22;6866;50.778;7.206;2023-02-28T09:26:00;12.60;66.20
13591;DHT22;6866;50.778;7.206;2023-02-28T09:28:26;10.60;67.00
13591;DHT22;6866;50.778;7.206;2023-02-28T09:30:54;10.50;66.60
13591;DHT22;6866;50.778;7.206;2023-02-28T09:33:21;11.00;65.30
13591;DHT22;6866;50.778;7.206;2023-02-28T09:35:47;11.20;66.40
13591;DHT22;6866;50.778;7.206;2023-02-28T09:38:13;10.50;65.90
13591;DHT22;6866;50.778;7.206;2023-02-28T09:41:03;12.10;64.60
13591;DHT22;6866;50.778;7.206;2023-02-28T09:43:33;12.20;65.00
13591;DHT22;6866;50.778;7.206;2023-02-28T09:46:06;10.30;66.00
13591;DHT22;6866;50.778;7.206;2023-02-28T09:48:36;11.20;65.70
13591;DHT22;6866;50.778;7.206;2023-02-28T09:51:23;10.40;64.00
13591;DHT22;6866;50.778;7.206;2023-02-28T09:53:53;10.80;66.20
13591;DHT22;6866;50.778;7.206;2023-02-28T09:56:22;10.80;66.40
13591;DHT22;6866;50.778;7.206;2023-02-28T09:59:01;10.50;65.50
13591;DHT22;6866;50.778;7.206;2023-02-28T10:01:29;10.80;64.10
13591;DHT22;6866;50.778;7.206;2023-02-28T10:07:35;11.30;64.10
13591;DHT22;6866;50.778;7.206;2023-02-28T10:10:07;10.20;50.50
13591;DHT22;6866;50.778;7.206;2023-02-28T10:12:41;10.30;49.70
13591;DHT22;6866;50.778;7.206;2023-02-28T10:15:14;10.20;50.60
13591;DHT22;6866;50.778;7.206;2023-02-28T10:17:44;10.40;50.30
13591;DHT22;6866;50.778;7.206;2023-02-28T10:20:17;9.40;49.20
13591;DHT22;6866;50.778;7.206;2023-02-28T10:27:58;10.20;59.00
13591;DHT22;6866;50.778;7.206;2023-02-28T10:30:26;9.10;51.00
13591;DHT22;6866;50.778;7.206;2023-02-28T10:32:51;8.80;50.50
13591;DHT22;6866;50.778;7.206;2023-02-28T10:35:26;9.10;42.70
13591;DHT22;6866;50.778;7.206;2023-02-28T10:37:55;8.90;40.40
13591;DHT22;6866;50.778;7.206;2023-02-28T10:43:11;8.20;42.20
13591;DHT22;6866;50.778;7.206;2023-02-28T10:46:04;7.80;48.90
13591;DHT22;6866;50.778;7.206;2023-02-28T10:48:41;7.50;49.80
13591;DHT22;6866;50.778;7.206;2023-02-28T10:51:16;7.40;37.80
13591;DHT22;6866;50.778;7.206;2023-02-28T10:53:54;8.00;35.70
13591;DHT22;6866;50.778;7.206;2023-02-28T10:56:22;7.30;36.40
13591;DHT22;6866;50.778;7.206;2023-02-28T11:04:00;7.00;37.30
13591;DHT22;6866;50.778;7.206;2023-02-28T11:06:31;7.30;38.10
13591;DHT22;6866;50.778;7.206;2023-02-28T11:09:37;7.20;37.40
13591;DHT22;6866;50.778;7.206;2023-02-28T11:12:06;7.50;37.20
13591;DHT22;6866;50.778;7.206;2023-02-28T11:14:46;7.20;37.30
13591;DHT22;6866;50.778;7.206;2023-02-28T11:17:25;7.40;37.60
13591;DHT22;6866;50.778;7.206;2023-02-28T11:19:54;7.20;37.40
13591;DHT22;6866;50.778;7.206;2023-02-28T11:22:24;7.00;38.10
13591;DHT22;6866;50.778;7.206;2023-02-28T11:24:56;7.00;39.20
13591;DHT22;6866;50.778;7.206;2023-02-28T11:27:43;7.10;37.70
13591;DHT22;6866;50.778;7.206;2023-02-28T11:30:38;7.10;37.70
13591;DHT22;6866;50.778;7.206;2023-02-28T11:33:27;7.40;39.30
13591;DHT22;6866;50.778;7.206;2023-02-28T11:36:00;6.90;38.80
13591;DHT22;6866;50.778;7.206;2023-02-28T11:38:26;6.70;38.90
13591;DHT22;6866;50.778;7.206;2023-02-28T11:46:30;6.80;38.90
13591;DHT22;6866;50.778;7.206;2023-02-28T11:49:05;6.70;39.00
13591;DHT22;6866;50.778;7.206;2023-02-28T12:19:21;7.60;40.30
13591;DHT22;6866;50.778;7.206;2023-02-28T12:27:21;7.80;41.60
13591;DHT22;6866;50.778;7.206;2023-02-28T12:32:25;7.50;39.70
13591;DHT22;6866;50.778;7.206;2023-02-28T12:34:56;7.70;40.80
13591;DHT22;6866;50.778;7.206;2023-02-28T12:37:31;7.50;40.10
13591;DHT22;6866;50.778;7.206;2023-02-28T12:40:03;7.20;40.80
13591;DHT22;6866;50.778;7.206;2023-02-28T12:42:36;7.30;40.70
13591;DHT22;6866;50.778;7.206;2023-02-28T12:45:23;7.60;40.70
13591;DHT22;6866;50.778;7.206;2023-02-28T12:48:01;7.40;40.60
13591;DHT22;6866;50.778;7.206;2023-02-28T12:50:29;7.70;40.80
13591;DHT22;6866;50.778;7.206;2023-02-28T12:53:08;8.10;41.50
13591;DHT22;6866;50.778;7.206;2023-02-28T12:56:00;7.70;40.30
13591;DHT22;6866;50.778;7.206;2023-02-28T12:58:50;7.50;41.30
13591;DHT22;6866;50.778;7.206;2023-02-28T13:09:18;7.50;42.20
13591;DHT22;6866;50.778;7.206;2023-02-28T13:11:48;7.70;41.50
13591;DHT22;6866;50.778;7.206;2023-02-28T13:14:28;7.70;41.20
13591;DHT22;6866;50.778;7.206;2023-02-28T13:17:01;7.70;41.70
13591;DHT22;6866;50.778;7.206;2023-02-28T13:19:30;7.60;41.70
13591;DHT22;6866;50.778;7.206;2023-02-28T13:21:57;7.70;41.70
13591;DHT22;6866;50.778;7.206;2023-02-28T13:29:49;7.60;42.30
13591;DHT22;6866;50.778;7.206;2023-02-28T13:39:52;7.80;42.30
13591;DHT22;6866;50.778;7.206;2023-02-28T13:48:14;7.70;42.60
13591;DHT22;6866;50.778;7.206;2023-02-28T13:55:53;7.80;42.70
13591;DHT22;6866;50.778;7.206;2023-02-28T14:07:07;7.60;42.80
13591;DHT22;6866;50.778;7.206;2023-02-28T14:09:38;7.50;43.40
13591;DHT22;6866;50.778;7.206;2023-02-28T14:18:01;7.80;43.70
13591;DHT22;6866;50.778;7.206;2023-02-28T14:20:32;7.40;43.70
13591;DHT22;6866;50.778;7.206;2023-02-28T14:31:33;7.50;44.30
13591;DHT22;6866;50.778;7.206;2023-02-28T14:36:41;7.60;44.10
13591;DHT22;6866;50.778;7.206;2023-02-28T14:39:15;7.40;43.90
13591;DHT22;6866;50.778;7.206;2023-02-28T14:41:44;7.40;44.20
13591;DHT22;6866;50.778;7.206;2023-02-28T14:44:22;7.30;44.20
13591;DHT22;6866;50.778;7.206;2023-02-28T14:47:02;7.50;44.60
13591;DHT22;6866;50.778;7.206;2023-02-28T14:49:42;7.50;43.90
13591;DHT22;6866;50.778;7.206;2023-02-28T14:52:20;7.40;44.10
13591;DHT22;6866;50.778;7.206;2023-02-28T14:54:52;7.40;45.10
13591;DHT22;6866;50.778;7.206;2023-02-28T14:57:25;7.20;45.30
13591;DHT22;6866;50.778;7.206;2023-02-28T15:00:22;7.30;44.30
13591;DHT22;6866;50.778;7.206;2023-02-28T15:02:48;7.50;45.40
13591;DHT22;6866;50.778;7.206;2023-02-28T15:07:42;7.50;45.80
13591;DHT22;6866;50.778;7.206;2023-02-28T15:10:22;7.80;45.80
13591;DHT22;6866;50.778;7.206;2023-02-28T15:15:23;7.40;45.00
13591;DHT22;6866;50.778;7.206;2023-02-28T15:17:53;7.30;45.90
13591;DHT22;6866;50.778;7.206;2023-02-28T15:20:21;7.40;45.80
13591;DHT22;6866;50.778;7.206;2023-02-28T15:22:50;7.40;45.50
13591;DHT22;6866;50.778;7.206;2023-02-28T15:25:20;7.50;45.70
13591;DHT22;6866;50.778;7.206;2023-02-28T15:27:48;7.60;46.30
13591;DHT22;6866;50.778;7.206;2023-02-28T15:30:25;7.60;46.00
13591;DHT22;6866;50.778;7.206;2023-02-28T15:35:37;7.50;46.10
13591;DHT22;6866;50.778;7.206;2023-02-28T15:38:16;7.30;46.80
13591;DHT22;6866;50.778;7.206;2023-02-28T15:40:49;7.50;46.50
13591;DHT22;6866;50.778;7.206;2023-02-28T15:43:31;7.40;46.20
13591;DHT22;6866;50.778;7.206;2023-02-28T15:51:08;7.50;47.50
13591;DHT22;6866;50.778;7.206;2023-02-28T15:53:57;7.20;47.20
13591;DHT22;6866;50.778;7.206;2023-02-28T15:56:26;7.30;47.40
13591;DHT22;6866;50.778;7.206;2023-02-28T15:59:03;7.30;47.70
13591;DHT22;6866;50.778;7.206;2023-02-28T16:01:34;7.20;47.40
13591;DHT22;6866;50.778;7.206;2023-02-28T16:04:11;7.20;47.50
13591;DHT22;6866;50.778;7.206;2023-02-28T16:06:38;7.10;47.50
13591;DHT22;6866;50.778;7.206;2023-02-28T16:09:06;7.00;47.60
13591;DHT22;6866;50.778;7.206;2023-02-28T16:11:36;6.90;48.50
13591;DHT22;6866;50.778;7.206;2023-02-28T16:14:04;7.00;49.10
13591;DHT22;6866;50.778;7.206;2023-02-28T16:16:31;7.00;49.30
13591;DHT22;6866;50.778;7.206;2023-02-28T16:18:57;7.00;49.10
13591;DHT22;6866;50.778;7.206;2023-02-28T16:21:24;7.10;49.80
13591;DHT22;6866;50.778;7.206;2023-02-28T16:23:50;6.90;49.20
13591;DHT22;6866;50.778;7.206;2023-02-28T16:26:22;7.00;49.80
13591;DHT22;6866;50.778;7.206;2023-02-28T16:28:48;6.90;49.20
13591;DHT22;6866;50.778;7.206;2023-02-28T16:31:14;6.90;49.40
13591;DHT22;6866;50.778;7.206;2023-02-28T16:33:44;6.80;49.50
13591;DHT22;6866;50.778;7.206;2023-02-28T16:36:22;6.80;50.20
13591;DHT22;6866;50.778;7.206;2023-02-28T16:38:50;6.80;50.90
13591;DHT22;6866;50.778;7.206;2023-02-28T16:41:21;6.80;51.10
13591;DHT22;6866;50.778;7.206;2023-02-28T16:43:49;6.70;51.40
13591;DHT22;6866;50.778;7.206;2023-02-28T16:46:16;6.70;51.60
13591;DHT22;6866;50.778;7.206;2023-02-28T16:48:45;6.60;52.10
13591;DHT22;6866;50.778;7.206;2023-02-28T16:51:13;6.50;53.10
13591;DHT22;6866;50.778;7.206;2023-02-28T16:53:38;6.70;52.80
13591;DHT22;6866;50.778;7.206;2023-02-28T16:56:04;6.60;52.90
13591;DHT22;6866;50.778;7.206;2023-02-28T16:58:32;6.60;53.90
13591;DHT22;6866;50.778;7.206;2023-02-28T17:01:01;6.60;52.30
13591;DHT22;6866;50.778;7.206;2023-02-28T17:03:27;6.20;52.70
13591;DHT22;6866;50.778;7.206;2023-02-28T17:05:53;6.50;53.00
13591;DHT22;6866;50.778;7.206;2023-02-28T17:08:19;6.40;53.70
13591;DHT22;6866;50.778;7.206;2023-02-28T17:10:44;6.40;54.00
13591;DHT22;6866;50.778;7.206;2023-02-28T17:13:10;6.40;54.00
13591;DHT22;6866;50.778;7.206;2023-02-28T17:15:37;6.20;55.10
13591;DHT22;6866;50.778;7.206;2023-02-28T17:18:04;6.10;55.20
13591;DHT22;6866;50.778;7.206;2023-02-28T17:20:30;6.10;54.40
13591;DHT22;6866;50.778;7.206;2023-02-28T17:22:55;6.10;54.30
13591;DHT22;6866;50.778;7.206;2023-02-28T17:25:22;6.10;54.90
13591;DHT22;6866;50.778;7.206;2023-02-28T17:27:48;6.00;56.30
13591;DHT22;6866;50.778;7.206;2023-02-28T17:30:16;6.10;56.10
13591;DHT22;6866;50.778;7.206;2023-02-28T17:32:41;5.90;56.50
13591;DHT22;6866;50.778;7.206;2023-02-28T17:35:07;5.90;56.50
13591;DHT22;6866;50.778;7.206;2023-02-28T17:37:33;6.00;57.90
13591;DHT22;6866;50.778;7.206;2023-02-28T17:39:59;5.90;58.30
13591;DHT22;6866;50.778;7.206;2023-02-28T17:42:24;5.90;60.30
13591;DHT22;6866;50.778;7.206;2023-02-28T17:44:50;5.70;59.90
13591;DHT22;6866;50.778;7.206;2023-02-28T17:47:15;5.70;60.70
13591;DHT22;6866;50.778;7.206;2023-02-28T17:49:41;5.70;61.60
13591;DHT22;6866;50.778;7.206;2023-02-28T17:52:07;5.80;61.30
13591;DHT22;6866;50.778;7.206;2023-02-28T17:54:33;5.70;61.60
13591;DHT22;6866;50.778;7.206;2023-02-28T17:56:58;5.70;62.20
13591;DHT22;6866;50.778;7.206;2023-02-28T17:59:24;5.60;65.20
13591;DHT22;6866;50.778;7.206;2023-02-28T18:01:49;5.60;64.20
13591;DHT22;6866;50.778;7.206;2023-02-28T18:04:15;5.60;66.60
13591;DHT22;6866;50.778;7.206;2023-02-28T18:06:43;5.50;68.70
13591;DHT22;6866;50.778;7.206;2023-02-28T18:09:14;5.60;67.90
13591;DHT22;6866;50.778;7.206;2023-02-28T18:11:39;5.60;67.90
13591;DHT22;6866;50.778;7.206;2023-02-28T18:14:10;5.50;63.90
13591;DHT22;6866;50.778;7.206;2023-02-28T18:16:36;5.60;64.40
13591;DHT22;6866;50.778;7.206;2023-02-28T18:19:03;5.50;64.70
13591;DHT22;6866;50.778;7.206;2023-02-28T18:21:28;5.50;65.40
13591;DHT22;6866;50.778;7.206;2023-02-28T18:23:54;5.50;61.20
13591;DHT22;6866;50.778;7.206;2023-02-28T18:26:20;5.20;57.70
13591;DHT22;6866;50.778;7.206;2023-02-28T18:28:46;5.20;57.90
13591;DHT22;6866;50.778;7.206;2023-02-28T18:31:15;5.30;58.90
13591;DHT22;6866;50.778;7.206;2023-02-28T18:33:47;5.30;59.40
13591;DHT22;6866;50.778;7.206;2023-02-28T18:36:12;5.30;58.80
13591;DHT22;6866;50.778;7.206;2023-02-28T18:38:38;5.10;57.30
13591;DHT22;6866;50.778;7.206;2023-02-28T18:41:05;5.20;56.90
13591;DHT22;6866;50.778;7.206;2023-02-28T18:43:32;5.00;56.60
13591;DHT22;6866;50.778;7.206;2023-02-28T18:46:03;4.80;56.70
13591;DHT22;6866;50.778;7.206;2023-02-28T18:48:29;4.70;57.80
13591;DHT22;6866;50.778;7.206;2023-02-28T18:50:54;4.60;58.70
13591;DHT22;6866;50.778;7.206;2023-02-28T18:53:20;4.80;58.80
13591;DHT22;6866;50.778;7.206;2023-02-28T18:55:45;4.60;59.60
13591;DHT22;6866;50.778;7.206;2023-02-28T18:58:11;4.50;62.50
13591;DHT22;6866;50.778;7.206;2023-02-28T19:00:37;4.50;63.20
13591;DHT22;6866;50.778;7.206;2023-02-28T19:03:03;4.60;64.70
13591;DHT22;6866;50.778;7.206;2023-02-28T19:05:29;4.10;67.60
13591;DHT22;6866;50.778;7.206;2023-02-28T19:08:01;4.10;73.20
13591;DHT22;6866;50.778;7.206;2023-02-28T19:10:27;4.00;74.00
13591;DHT22;6866;50.778;7.206;2023-02-28T19:12:52;4.00;64.40